Time;durP1;ratioP1;P1;durP2;ratioP2;P2;SDS_P1;SDS_P2;PMS_P1;PMS_P2;Temp;Humidity;BMP_temperature;BMP_pressure;BME280_temperature;BME280_humidity;BME280_pressure;Samples;Min_cycle;Max_cycle;Signal;HPM_P1;HPM_P2
2022/03/21 00:02:26;;;;;;;101.13;53.88;;;6.70;99.90;;;;;;5005024;28;20049;-70
2022/03/21 00:04:51;;;;;;;86.53;53.10;;;6.70;99.90;;;;;;5007200;28;20046;-70
2022/03/21 00:07:18;;;;;;;95.32;55.75;;;6.70;99.90;;;;;;5003919;28;20053;-68
2022/03/21 00:09:44;;;;;;;91.13;53.63;;;6.80;99.90;;;;;;5014972;28;20491;-69
2022/03/21 00:12:13;;;;;;;95.50;52.28;;;6.80;99.90;;;;;;5008160;28;20100;-68
2022/03/21 00:14:42;;;;;;;90.13;50.65;;;6.70;99.90;;;;;;5007586;28;20100;-70
2022/03/21 00:17:09;;;;;;;92.13;52.33;;;6.70;99.90;;;;;;5006377;28;20046;-69
2022/03/21 00:19:35;;;;;;;100.13;51.78;;;6.70;99.90;;;;;;5008103;28;20069;-69
2022/03/21 00:22:01;;;;;;;88.40;51.10;;;6.70;99.90;;;;;;5005412;28;20080;-69
2022/03/21 00:24:27;;;;;;;83.50;48.22;;;6.80;99.90;;;;;;5011994;28;20056;-70
2022/03/21 00:26:52;;;;;;;78.97;47.17;;;6.80;99.90;;;;;;5007448;28;20058;-69
2022/03/21 00:29:18;;;;;;;82.10;48.42;;;6.70;99.90;;;;;;5013941;28;20046;-68
2022/03/21 00:31:44;;;;;;;75.60;44.80;;;6.70;99.90;;;;;;5006357;28;20072;-68
2022/03/21 00:34:10;;;;;;;72.45;43.22;;;6.80;99.90;;;;;;5012154;28;20809;-68
2022/03/21 00:36:36;;;;;;;73.40;43.83;;;6.80;99.90;;;;;;5011240;28;20455;-68
2022/03/21 00:39:03;;;;;;;73.93;45.65;;;6.70;99.90;;;;;;5007517;28;20858;-69
2022/03/21 00:41:31;;;;;;;70.20;40.50;;;6.70;99.90;;;;;;5010058;28;20372;-68
2022/03/21 00:43:59;;;;;;;73.20;42.67;;;6.80;99.90;;;;;;5012913;28;20559;-68
2022/03/21 00:46:25;;;;;;;76.85;43.60;;;6.80;99.90;;;;;;5003664;28;20058;-68
2022/03/21 00:48:51;;;;;;;73.63;42.72;;;6.80;99.90;;;;;;5007614;28;20041;-68
2022/03/21 00:51:18;;;;;;;75.03;40.38;;;6.80;99.90;;;;;;5013569;28;20049;-68
2022/03/21 00:53:43;;;;;;;77.35;44.35;;;6.70;99.90;;;;;;5010652;28;20129;-68
2022/03/21 00:56:09;;;;;;;77.57;42.67;;;6.70;99.90;;;;;;5012793;28;20049;-69
2022/03/21 00:58:35;;;;;;;68.88;43.40;;;6.70;99.90;;;;;;5011637;28;20076;-68
2022/03/21 01:01:01;;;;;;;69.60;42.85;;;6.70;99.90;;;;;;5010212;28;20061;-68
2022/03/21 01:03:26;;;;;;;73.15;43.38;;;6.70;99.90;;;;;;5006631;28;20177;-68
2022/03/21 01:05:52;;;;;;;73.03;43.85;;;6.70;99.90;;;;;;5010482;28;20503;-68
2022/03/21 01:08:18;;;;;;;74.18;44.40;;;6.70;99.90;;;;;;5005188;28;20499;-69
2022/03/21 01:10:43;;;;;;;75.45;44.28;;;6.70;99.90;;;;;;5010125;28;20092;-68
2022/03/21 01:13:09;;;;;;;74.68;42.30;;;6.70;99.90;;;;;;5011386;28;20547;-68
2022/03/21 01:15:35;;;;;;;78.47;44.08;;;6.70;99.90;;;;;;5013534;28;20505;-68
2022/03/21 01:18:01;;;;;;;62.97;42.08;;;6.70;99.90;;;;;;5008772;28;20046;-68
2022/03/21 01:20:27;;;;;;;69.63;40.55;;;6.70;99.90;;;;;;5017019;28;20454;-68
2022/03/21 01:22:53;;;;;;;71.07;40.97;;;6.60;99.90;;;;;;5010470;28;20133;-68
2022/03/21 01:25:19;;;;;;;74.68;43.80;;;6.60;99.90;;;;;;5008109;28;20125;-68
2022/03/21 01:27:45;;;;;;;65.07;38.53;;;6.60;99.90;;;;;;5009517;28;20427;-68
2022/03/21 01:30:15;;;;;;;68.35;42.67;;;6.60;99.90;;;;;;5012048;28;20053;-68
2022/03/21 01:32:43;;;;;;;72.93;46.45;;;6.60;99.90;;;;;;5008926;28;20052;-68
2022/03/21 01:35:13;;;;;;;72.93;43.05;;;6.60;99.90;;;;;;5012882;28;20487;-68
2022/03/21 01:37:39;;;;;;;69.43;40.72;;;6.60;99.90;;;;;;5012445;28;20108;-68
2022/03/21 01:40:05;;;;;;;76.95;45.53;;;6.60;99.90;;;;;;5007481;28;20451;-68
2022/03/21 01:42:31;;;;;;;62.75;40.35;;;6.60;99.90;;;;;;4989852;28;20045;-68
2022/03/21 01:44:57;;;;;;;77.75;45.65;;;6.50;99.90;;;;;;5000506;28;20104;-68
2022/03/21 01:47:24;;;;;;;71.80;43.05;;;6.50;99.90;;;;;;5011631;28;20135;-68
2022/03/21 01:49:50;;;;;;;76.70;44.45;;;6.50;99.90;;;;;;5006650;28;20495;-68
2022/03/21 01:52:16;;;;;;;75.35;44.33;;;6.50;99.90;;;;;;5010587;28;20048;-68
2022/03/21 01:57:26;;;;;;;66.13;45.13;;;6.60;99.90;;;;;;4998530;28;20080;-68
2022/03/21 01:59:52;;;;;;;81.75;48.03;;;6.60;99.90;;;;;;5004791;28;20491;-68
2022/03/21 02:02:18;;;;;;;81.72;45.97;;;6.50;99.90;;;;;;5011192;28;20045;-68
2022/03/21 02:04:43;;;;;;;74.80;47.22;;;6.60;99.90;;;;;;5007998;28;20504;-68
2022/03/21 02:07:10;;;;;;;84.25;50.33;;;6.50;99.90;;;;;;5011894;28;20046;-68
2022/03/21 02:09:36;;;;;;;81.63;47.42;;;6.60;99.90;;;;;;4993944;28;20125;-68
2022/03/21 02:12:03;;;;;;;74.47;44.35;;;6.50;99.90;;;;;;5005643;28;20034;-68
2022/03/21 02:14:29;;;;;;;76.20;48.13;;;6.50;99.90;;;;;;5005139;28;20038;-68
2022/03/21 02:16:55;;;;;;;85.65;49.85;;;6.50;99.90;;;;;;5011299;28;20037;-68
2022/03/21 02:19:29;;;;;;;79.03;44.80;;;6.50;99.90;;;;;;5014929;28;20125;-67
2022/03/21 02:22:03;;;;;;;79.18;47.85;;;6.50;99.90;;;;;;5008673;28;20507;-67
2022/03/21 02:25:17;;;;;;;68.93;42.92;;;6.50;99.90;;;;;;5007054;28;20125;-67
2022/03/21 02:27:45;;;;;;;64.20;42.10;;;6.50;99.90;;;;;;5004066;28;20096;-67
2022/03/21 02:30:11;;;;;;;72.63;43.83;;;6.50;99.90;;;;;;5011761;28;20042;-67
2022/03/21 02:32:37;;;;;;;73.28;42.10;;;6.50;99.90;;;;;;5011911;28;20590;-67
2022/03/21 02:35:03;;;;;;;70.75;44.28;;;6.50;99.90;;;;;;5007869;28;20046;-68
2022/03/21 02:37:30;;;;;;;80.57;42.88;;;6.50;99.90;;;;;;5011445;28;20042;-68
2022/03/21 02:39:58;;;;;;;68.40;40.67;;;6.50;99.90;;;;;;5001262;28;20043;-68
2022/03/21 02:42:24;;;;;;;76.95;44.08;;;6.40;99.90;;;;;;5002050;28;20053;-68
2022/03/21 02:44:50;;;;;;;73.65;42.58;;;6.50;99.90;;;;;;5013612;28;20061;-68
2022/03/21 02:47:15;;;;;;;70.47;42.42;;;6.50;99.90;;;;;;5014775;28;20537;-68
2022/03/21 02:49:41;;;;;;;71.10;42.17;;;6.40;99.90;;;;;;5006402;28;20519;-68
2022/03/21 02:52:10;;;;;;;75.35;45.10;;;6.40;99.90;;;;;;5011802;28;20033;-68
2022/03/21 02:54:35;;;;;;;;;;;6.40;99.90;;;;;;5017232;28;20511;-68
2022/03/21 02:57:02;;;;;;;78.40;43.10;;;6.40;99.90;;;;;;5007699;28;19949;-68
2022/03/21 02:59:28;;;;;;;68.97;42.25;;;6.30;99.90;;;;;;5008567;28;20433;-68
2022/03/21 03:01:54;;;;;;;58.75;38.97;;;6.30;99.90;;;;;;5008031;28;20047;-68
2022/03/21 03:04:23;;;;;;;76.43;42.65;;;6.30;99.90;;;;;;5013384;28;20038;-68
2022/03/21 03:06:49;;;;;;;61.17;35.33;;;6.30;99.90;;;;;;5006744;28;20049;-68
2022/03/21 03:09:15;;;;;;;67.55;40.10;;;6.30;99.90;;;;;;5010777;28;20380;-68
2022/03/21 03:11:41;;;;;;;63.85;40.83;;;6.30;99.90;;;;;;5008322;28;20515;-68
2022/03/21 03:14:07;;;;;;;58.53;32.65;;;6.30;99.90;;;;;;5011765;28;20046;-68
2022/03/21 03:16:34;;;;;;;66.05;35.75;;;6.30;99.90;;;;;;5013118;28;20072;-68
2022/03/21 03:19:00;;;;;;;55.88;34.40;;;6.20;99.90;;;;;;5016070;28;20491;-68
2022/03/21 03:21:30;;;;;;;56.03;34.38;;;6.20;99.90;;;;;;5017887;28;20046;-68
2022/03/21 03:23:59;;;;;;;59.55;34.75;;;6.10;99.90;;;;;;5001169;28;20077;-68
2022/03/21 03:26:24;;;;;;;64.50;37.42;;;6.10;99.90;;;;;;5014429;28;20038;-68
2022/03/21 03:28:51;;;;;;;54.08;33.05;;;6.00;99.90;;;;;;5004038;28;20046;-68
2022/03/21 03:31:18;;;;;;;48.75;33.22;;;5.90;99.90;;;;;;5005359;28;20811;-68
2022/03/21 03:33:45;;;;;;;47.78;32.42;;;5.90;99.90;;;;;;5018712;28;20038;-68
2022/03/21 03:36:16;;;;;;;57.78;34.47;;;5.90;99.90;;;;;;5006011;28;20084;-68
2022/03/21 03:38:43;;;;;;;51.58;31.42;;;5.80;99.90;;;;;;5010926;28;20044;-68
2022/03/21 03:41:09;;;;;;;52.78;30.58;;;5.80;99.90;;;;;;5008200;28;20049;-68
2022/03/21 03:43:36;;;;;;;49.85;29.85;;;5.70;99.90;;;;;;5008931;28;20509;-68
2022/03/21 03:46:02;;;;;;;51.13;30.02;;;5.60;99.90;;;;;;5008129;28;20058;-68
2022/03/21 03:48:28;;;;;;;55.60;33.65;;;5.60;99.90;;;;;;5012800;28;20467;-68
2022/03/21 03:50:54;;;;;;;52.30;33.47;;;5.50;99.90;;;;;;5004637;28;20090;-68
2022/03/21 03:53:20;;;;;;;54.03;30.58;;;5.50;99.90;;;;;;5012659;28;20082;-68
2022/03/21 03:55:46;;;;;;;46.50;29.90;;;5.40;99.90;;;;;;5014113;28;20526;-68
2022/03/21 03:58:12;;;;;;;47.50;30.23;;;5.40;99.90;;;;;;5011211;28;20099;-68
2022/03/21 04:00:37;;;;;;;50.72;32.30;;;5.20;99.90;;;;;;5010261;28;20046;-68
2022/03/21 04:05:49;;;;;;;44.90;30.80;;;5.10;99.90;;;;;;5006033;28;20061;-68
2022/03/21 04:08:15;;;;;;;49.38;31.23;;;5.00;99.90;;;;;;5006832;28;20049;-68
2022/03/21 04:10:41;;;;;;;45.97;30.95;;;5.00;99.90;;;;;;5008208;28;20061;-68
2022/03/21 04:13:06;;;;;;;45.42;30.25;;;5.00;99.90;;;;;;5021324;28;20038;-68
2022/03/21 04:15:32;;;;;;;51.67;31.80;;;5.00;99.90;;;;;;5010022;28;20128;-68
2022/03/21 04:18:01;;;;;;;48.33;30.67;;;5.00;99.90;;;;;;5010252;28;20068;-68
2022/03/21 04:20:31;;;;;;;40.25;28.00;;;4.90;99.90;;;;;;5014487;28;20503;-69
2022/03/21 04:23:00;;;;;;;54.85;31.92;;;4.90;99.90;;;;;;5005379;28;20138;-68
2022/03/21 04:25:27;;;;;;;52.65;30.00;;;4.80;99.90;;;;;;5009751;28;20052;-69
2022/03/21 04:27:54;;;;;;;58.90;33.58;;;4.70;99.90;;;;;;5007392;28;20141;-69
2022/03/21 04:30:20;;;;;;;49.65;30.77;;;4.70;99.90;;;;;;5018993;28;20045;-69
2022/03/21 04:32:46;;;;;;;53.35;33.00;;;4.60;99.90;;;;;;5015129;28;20052;-69
2022/03/21 04:35:12;;;;;;;48.75;31.08;;;4.60;99.90;;;;;;5011699;28;20185;-69
2022/03/21 04:37:39;;;;;;;46.20;30.02;;;4.50;99.90;;;;;;5014169;28;20041;-69
2022/03/21 04:40:07;;;;;;;52.03;31.73;;;4.50;99.90;;;;;;5004675;28;20053;-69
2022/03/21 04:42:35;;;;;;;58.33;33.45;;;4.50;99.90;;;;;;5004147;28;21437;-69
2022/03/21 04:45:00;;;;;;;50.22;30.70;;;4.40;99.90;;;;;;5009570;28;20081;-69
2022/03/21 04:47:26;;;;;;;70.45;32.97;;;4.40;99.90;;;;;;5008076;28;20085;-68
2022/03/21 04:49:52;;;;;;;56.70;32.10;;;4.40;99.90;;;;;;5011472;28;20100;-68
2022/03/21 04:52:17;;;;;;;58.22;33.50;;;4.30;99.90;;;;;;5013506;28;20471;-68
2022/03/21 04:54:43;;;;;;;51.97;30.58;;;4.20;99.90;;;;;;5011786;28;20053;-68
2022/03/21 04:57:11;;;;;;;64.05;32.78;;;4.20;99.90;;;;;;5008722;28;20503;-68
2022/03/21 04:59:37;;;;;;;51.73;31.67;;;4.20;99.90;;;;;;5010978;28;20148;-68
2022/03/21 05:02:03;;;;;;;49.45;32.25;;;4.10;99.90;;;;;;5008127;28;20277;-68
2022/03/21 05:04:30;;;;;;;49.80;30.38;;;4.00;99.90;;;;;;5009246;28;20388;-68
2022/03/21 05:06:57;;;;;;;54.60;32.88;;;3.90;99.90;;;;;;5008154;28;20046;-68
2022/03/21 05:09:23;;;;;;;50.25;32.88;;;3.90;99.90;;;;;;4994084;28;20058;-68
2022/03/21 05:11:48;;;;;;;60.47;35.42;;;3.90;99.90;;;;;;5007102;28;20709;-68
2022/03/21 05:14:16;;;;;;;53.15;30.95;;;3.90;99.90;;;;;;5010607;28;20038;-68
2022/03/21 05:16:41;;;;;;;53.28;30.92;;;3.90;99.90;;;;;;5010080;28;20587;-68
2022/03/21 05:19:07;;;;;;;54.85;28.85;;;3.90;99.90;;;;;;5006719;28;20133;-68
2022/03/21 05:21:33;;;;;;;46.30;28.58;;;3.80;99.90;;;;;;5019659;28;20098;-68
2022/03/21 05:32:11;;;;;;;46.13;29.23;;;3.50;99.90;;;;;;5005357;28;20054;-69
2022/03/21 05:37:21;;;;;;;44.35;27.77;;;3.50;99.90;;;;;;5009532;28;20085;-70
2022/03/21 05:42:31;;;;;;;53.08;31.70;;;3.50;99.90;;;;;;5001102;28;20042;-69
2022/03/21 05:44:57;;;;;;;41.47;26.95;;;3.30;99.90;;;;;;5007335;28;20530;-69
2022/03/21 05:47:22;;;;;;;33.55;24.63;;;3.20;99.90;;;;;;5010183;28;20061;-69
2022/03/21 05:49:48;;;;;;;39.22;26.35;;;3.00;99.90;;;;;;5011029;28;20049;-69
2022/03/21 05:52:13;;;;;;;40.72;25.10;;;3.00;99.90;;;;;;5007926;28;20046;-70
2022/03/21 05:54:40;;;;;;;35.15;23.45;;;3.10;99.90;;;;;;5007678;28;20037;-68
2022/03/21 05:57:05;;;;;;;46.05;29.58;;;3.10;99.90;;;;;;5010896;28;20033;-69
2022/03/21 06:02:16;;;;;;;42.45;25.17;;;3.00;99.90;;;;;;4998237;28;20065;-69
2022/03/21 06:04:42;;;;;;;36.15;24.58;;;3.10;99.90;;;;;;5004089;28;20468;-68
2022/03/21 06:07:10;;;;;;;50.08;25.65;;;3.10;99.90;;;;;;5008505;28;20052;-69
2022/03/21 06:09:36;;;;;;;28.50;18.48;;;3.10;99.90;;;;;;5009423;28;20148;-68
2022/03/21 06:12:01;;;;;;;39.53;24.90;;;3.20;99.90;;;;;;5000787;28;20462;-68
2022/03/21 06:14:27;;;;;;;33.70;22.23;;;3.30;99.90;;;;;;5002211;28;20037;-69
2022/03/21 06:16:53;;;;;;;42.05;25.35;;;3.50;99.90;;;;;;5006010;28;20054;-69
2022/03/21 06:19:18;;;;;;;43.90;27.65;;;3.60;99.90;;;;;;5012960;28;20042;-69
2022/03/21 06:21:44;;;;;;;40.83;26.30;;;3.80;99.90;;;;;;5016281;28;20038;-68
2022/03/21 06:24:12;;;;;;;47.67;28.83;;;4.00;99.90;;;;;;5004580;28;20152;-68
2022/03/21 06:26:39;;;;;;;48.63;30.15;;;4.10;99.90;;;;;;5001770;28;20139;-69
2022/03/21 06:29:05;;;;;;;46.70;28.80;;;4.20;99.90;;;;;;5008040;28;20049;-68
2022/03/21 06:31:31;;;;;;;47.70;31.63;;;4.30;99.90;;;;;;4991774;28;20046;-69
2022/03/21 06:33:56;;;;;;;69.78;37.90;;;4.40;99.90;;;;;;5009752;28;20061;-68
2022/03/21 06:36:22;;;;;;;69.70;43.63;;;4.50;99.90;;;;;;5008723;28;20087;-68
2022/03/21 06:38:48;;;;;;;68.15;35.85;;;4.50;99.90;;;;;;5010322;28;20514;-68
2022/03/21 06:41:15;;;;;;;55.35;36.08;;;4.50;99.90;;;;;;5007410;28;20050;-68
2022/03/21 06:43:42;;;;;;;54.30;35.50;;;4.60;99.90;;;;;;5006592;28;20057;-68
2022/03/21 06:46:08;;;;;;;45.83;30.58;;;4.70;99.90;;;;;;5000109;28;20487;-68
2022/03/21 06:48:34;;;;;;;42.95;30.42;;;4.70;99.90;;;;;;5010349;28;20111;-68
2022/03/21 06:51:00;;;;;;;61.03;36.80;;;4.80;99.90;;;;;;5010959;28;20479;-68
2022/03/21 06:53:25;;;;;;;55.70;37.00;;;4.80;99.90;;;;;;5004612;28;20125;-68
2022/03/21 06:55:51;;;;;;;59.88;37.40;;;5.00;99.90;;;;;;5008634;28;20073;-67
2022/03/21 06:58:17;;;;;;;71.25;39.38;;;5.20;99.90;;;;;;5008970;28;20423;-68
2022/03/21 07:00:44;;;;;;;52.70;34.30;;;5.40;99.90;;;;;;5002916;28;20046;-68
2022/03/21 07:03:11;;;;;;;58.28;36.67;;;5.60;99.90;;;;;;5001021;28;20048;-70
2022/03/21 07:05:37;;;;;;;55.78;34.38;;;5.80;99.90;;;;;;5006613;28;20072;-69
2022/03/21 07:08:07;;;;;;;54.35;34.10;;;6.00;99.90;;;;;;5003443;28;20042;-69
2022/03/21 07:10:33;;;;;;;51.78;34.17;;;6.20;99.90;;;;;;5008315;28;20408;-67
2022/03/21 07:13:04;;;;;;;54.35;34.00;;;6.40;99.90;;;;;;5008614;28;20904;-69
2022/03/21 07:15:30;;;;;;;56.60;35.05;;;6.70;99.90;;;;;;5008797;28;20045;-69
2022/03/21 07:17:56;;;;;;;50.03;33.08;;;6.70;99.90;;;;;;5010435;28;20038;-68
2022/03/21 07:20:25;;;;;;;53.00;35.78;;;6.70;99.90;;;;;;5002021;28;20042;-68
2022/03/21 07:22:52;;;;;;;52.88;34.97;;;7.00;99.90;;;;;;5009712;28;20169;-67
2022/03/21 07:25:18;;;;;;;59.55;36.47;;;7.10;99.90;;;;;;5008280;28;20792;-68
2022/03/21 07:27:45;;;;;;;57.65;36.92;;;7.20;99.90;;;;;;5012683;28;20041;-68
2022/03/21 07:30:15;;;;;;;61.90;36.47;;;7.40;99.90;;;;;;5014454;28;20117;-67
2022/03/21 07:32:41;;;;;;;59.60;37.03;;;7.60;99.90;;;;;;5008244;28;20194;-67
2022/03/21 07:35:08;;;;;;;63.95;36.65;;;7.80;99.90;;;;;;5002483;28;20045;-68
2022/03/21 07:37:50;;;;;;;58.08;36.20;;;7.90;99.90;;;;;;5002861;28;20513;-69
2022/03/21 07:40:17;;;;;;;59.13;36.47;;;8.10;99.90;;;;;;5007874;28;20549;-69
2022/03/21 07:42:44;;;;;;;54.88;35.05;;;8.20;99.90;;;;;;5009925;28;20054;-69
2022/03/21 07:47:57;;;;;;;52.85;34.08;;;8.50;99.90;;;;;;5009481;28;20089;-69
2022/03/21 07:50:26;;;;;;;58.97;34.17;;;8.70;99.90;;;;;;5011376;28;20052;-68
2022/03/21 07:52:55;;;;;;;52.50;32.00;;;8.90;99.90;;;;;;5019298;28;20040;-69
2022/03/21 07:55:21;;;;;;;53.08;32.60;;;9.00;99.90;;;;;;5009449;28;20423;-69
2022/03/21 07:57:47;;;;;;;49.63;34.55;;;9.30;99.90;;;;;;5015372;28;20049;-70
2022/03/21 08:00:14;;;;;;;51.55;33.33;;;9.40;99.90;;;;;;5009502;28;20118;-68
2022/03/21 08:02:43;;;;;;;61.17;35.83;;;9.60;99.90;;;;;;5008455;28;20406;-68
2022/03/21 08:05:09;;;;;;;49.80;31.73;;;9.70;99.90;;;;;;5005882;28;20057;-69
2022/03/21 08:07:36;;;;;;;60.00;33.25;;;10.00;99.90;;;;;;5009383;28;20046;-68
2022/03/21 08:10:07;;;;;;;48.75;30.63;;;10.20;99.90;;;;;;5002015;28;20391;-68
2022/03/21 08:12:32;;;;;;;49.33;32.70;;;10.50;99.90;;;;;;4989637;28;20491;-69
2022/03/21 08:14:59;;;;;;;46.70;30.15;;;10.50;99.90;;;;;;5008855;28;20042;-68
2022/03/21 08:17:30;;;;;;;57.88;34.20;;;10.70;99.90;;;;;;5004752;28;20057;-68
2022/03/21 08:19:56;;;;;;;45.58;31.25;;;10.90;99.90;;;;;;4991510;28;20494;-68
2022/03/21 08:22:21;;;;;;;52.50;33.17;;;10.90;99.90;;;;;;5000845;28;20047;-68
2022/03/21 08:24:47;;;;;;;50.13;30.23;;;11.00;99.90;;;;;;5003705;28;20057;-68
2022/03/21 08:27:14;;;;;;;46.78;32.33;;;11.10;99.90;;;;;;5000620;28;20050;-68
2022/03/21 08:29:40;;;;;;;59.13;33.08;;;11.10;99.90;;;;;;5009339;28;20131;-67
2022/03/21 08:32:06;;;;;;;51.72;33.20;;;11.20;99.90;;;;;;5016978;28;20088;-68
2022/03/21 08:34:32;;;;;;;56.20;31.08;;;11.30;99.90;;;;;;5007317;28;20046;-68
2022/03/21 08:36:58;;;;;;;49.15;28.98;;;11.40;99.90;;;;;;5010663;28;20092;-68
2022/03/21 08:39:23;;;;;;;58.72;31.65;;;11.40;99.90;;;;;;5008176;28;20634;-68
2022/03/21 08:41:49;;;;;;;50.13;32.10;;;11.40;99.90;;;;;;5010750;28;20050;-68
2022/03/21 08:44:15;;;;;;;47.15;29.60;;;11.50;99.90;;;;;;5008430;28;20046;-67
2022/03/21 08:46:40;;;;;;;43.25;26.45;;;11.60;99.90;;;;;;5009812;28;20061;-67
2022/03/21 08:49:24;;;;;;;43.97;28.65;;;11.60;99.90;;;;;;5007019;28;20055;-67
2022/03/21 08:51:51;;;;;;;48.47;28.55;;;11.50;99.90;;;;;;5008838;28;20610;-67
2022/03/21 08:54:22;;;;;;;41.25;27.33;;;11.50;99.90;;;;;;5009969;28;20065;-66
2022/03/21 08:56:48;;;;;;;43.28;28.08;;;11.60;99.90;;;;;;5005470;28;20046;-66
2022/03/21 08:59:14;;;;;;;45.60;28.60;;;11.60;99.90;;;;;;5005513;28;20061;-66
2022/03/21 09:01:40;;;;;;;48.65;29.98;;;11.60;99.90;;;;;;5009237;28;20046;-66
2022/03/21 09:04:05;;;;;;;46.20;29.63;;;11.70;99.90;;;;;;5007515;28;20510;-66
2022/03/21 09:06:31;;;;;;;50.60;26.52;;;11.90;99.90;;;;;;5005609;28;20038;-66
2022/03/21 09:08:58;;;;;;;46.15;25.67;;;12.00;99.90;;;;;;5004236;28;20045;-66
2022/03/21 09:11:24;;;;;;;42.30;26.95;;;12.10;99.90;;;;;;5005269;28;20559;-66
2022/03/21 09:13:50;;;;;;;44.03;27.40;;;12.20;99.90;;;;;;5004065;28;20132;-66
2022/03/21 09:16:16;;;;;;;47.92;27.65;;;12.40;99.90;;;;;;5004528;28;20054;-66
2022/03/21 09:18:43;;;;;;;43.42;27.25;;;12.40;99.90;;;;;;5006041;28;20157;-66
2022/03/21 09:21:11;;;;;;;47.83;28.30;;;12.40;99.90;;;;;;5015607;28;20502;-65
2022/03/21 09:23:37;;;;;;;43.25;28.52;;;12.50;99.90;;;;;;5010349;28;20099;-66
2022/03/21 09:26:04;;;;;;;44.67;27.75;;;12.50;99.90;;;;;;5006440;28;20041;-66
2022/03/21 09:28:31;;;;;;;41.20;26.25;;;12.60;99.90;;;;;;5002985;28;20050;-67
2022/03/21 09:30:56;;;;;;;55.17;28.73;;;12.60;99.90;;;;;;5002607;28;20038;-67
2022/03/21 09:33:22;;;;;;;42.85;27.75;;;12.70;99.90;;;;;;5002395;28;20046;-66
2022/03/21 09:35:48;;;;;;;46.33;29.35;;;12.80;99.90;;;;;;5009561;28;20486;-67
2022/03/21 09:38:17;;;;;;;42.78;29.10;;;12.90;99.90;;;;;;5009854;28;20133;-65
2022/03/21 09:40:44;;;;;;;43.50;29.23;;;12.80;99.90;;;;;;5011676;28;20661;-67
2022/03/21 09:43:11;;;;;;;46.47;30.38;;;12.90;99.90;;;;;;5010069;28;20137;-68
2022/03/21 09:45:37;;;;;;;54.85;32.00;;;12.90;99.90;;;;;;5012876;28;20050;-68
2022/03/21 09:48:08;;;;;;;46.90;30.58;;;12.90;99.90;;;;;;5012807;28;20706;-67
2022/03/21 09:50:35;;;;;;;53.05;32.35;;;13.00;99.90;;;;;;5008741;28;20065;-68
2022/03/21 09:53:03;;;;;;;49.45;31.30;;;13.20;99.90;;;;;;5008319;28;20452;-66
2022/03/21 09:55:29;;;;;;;57.90;30.83;;;13.30;99.90;;;;;;4999583;28;20049;-67
2022/03/21 09:57:54;;;;;;;55.90;33.05;;;13.40;99.90;;;;;;5010525;28;20048;-67
2022/03/21 10:00:20;;;;;;;53.60;32.17;;;13.40;99.90;;;;;;5005100;28;20042;-68
2022/03/21 10:02:46;;;;;;;55.45;36.03;;;13.40;99.90;;;;;;5005854;28;20045;-68
2022/03/21 10:05:35;;;;;;;54.55;33.97;;;13.50;99.90;;;;;;5009171;28;20082;-68
2022/03/21 10:08:23;;;;;;;56.83;34.47;;;13.60;99.90;;;;;;5007900;28;20414;-68
2022/03/21 10:11:01;;;;;;;58.33;33.47;;;13.50;99.90;;;;;;5022058;28;21132;-68
2022/03/21 10:13:37;;;;;;;54.70;35.78;;;13.50;99.90;;;;;;5008128;28;20050;-68
2022/03/21 10:16:11;;;;;;;53.58;36.03;;;13.60;99.90;;;;;;5004411;28;20805;-68
2022/03/21 10:18:39;;;;;;;63.13;38.63;;;13.50;99.90;;;;;;5010202;28;20049;-68
2022/03/21 10:21:15;;;;;;;65.43;37.03;;;13.70;99.90;;;;;;5006973;28;20075;-68
2022/03/21 10:23:44;;;;;;;56.10;37.35;;;13.90;99.90;;;;;;5003862;28;20139;-68
2022/03/21 10:26:31;;;;;;;67.20;40.55;;;13.80;99.90;;;;;;5006579;28;20507;-67
2022/03/21 10:29:02;;;;;;;66.63;41.53;;;13.90;99.90;;;;;;5000642;28;20406;-68
2022/03/21 10:31:43;;;;;;;62.17;40.08;;;13.90;99.90;;;;;;5010492;28;20558;-68
2022/03/21 10:34:11;;;;;;;60.45;36.67;;;14.00;98.40;;;;;;5014770;28;20136;-68
2022/03/21 10:37:00;;;;;;;67.43;39.13;;;14.20;99.80;;;;;;5003643;28;20517;-68
2022/03/21 10:39:28;;;;;;;66.05;39.67;;;14.30;96.90;;;;;;5006880;28;20192;-68
2022/03/21 10:41:56;;;;;;;60.88;39.35;;;14.30;98.70;;;;;;5014523;28;20126;-69
2022/03/21 10:44:22;;;;;;;61.03;38.80;;;14.40;97.70;;;;;;5013161;28;20057;-69
2022/03/21 10:46:56;;;;;;;68.93;38.63;;;14.40;97.00;;;;;;5005586;28;20054;-68
2022/03/21 10:49:38;;;;;;;67.72;39.83;;;14.50;96.50;;;;;;5010600;28;20054;-68
2022/03/21 10:52:05;;;;;;;64.95;35.90;;;14.50;95.80;;;;;;5008889;28;20116;-68
2022/03/21 10:54:40;;;;;;;66.70;41.17;;;14.50;95.70;;;;;;5005760;28;20080;-67
2022/03/21 10:57:31;;;;;;;68.47;42.38;;;14.60;95.00;;;;;;5008053;28;20058;-67
2022/03/21 11:00:20;;;;;;;63.45;37.55;;;14.70;92.80;;;;;;4989529;28;20062;-67
2022/03/21 11:02:52;;;;;;;73.28;41.38;;;14.70;93.80;;;;;;5003115;28;20081;-68
2022/03/21 11:05:19;;;;;;;66.03;39.03;;;14.80;93.00;;;;;;5007347;28;20092;-67
2022/03/21 11:07:46;;;;;;;62.00;39.13;;;15.00;94.30;;;;;;5000651;28;20423;-67
2022/03/21 11:10:12;;;;;;;62.63;39.55;;;15.10;92.20;;;;;;5001252;28;20535;-69
2022/03/21 11:12:42;;;;;;;62.60;38.72;;;15.20;91.70;;;;;;5005552;28;20042;-68
2022/03/21 11:15:09;;;;;;;67.03;37.25;;;15.30;90.80;;;;;;5003319;28;20405;-68
2022/03/21 11:17:36;;;;;;;81.43;41.70;;;15.40;90.00;;;;;;5006373;28;20038;-68
2022/03/21 11:20:04;;;;;;;59.53;38.63;;;15.40;89.40;;;;;;5004303;28;20372;-68
2022/03/21 11:22:32;;;;;;;;;;;15.40;86.20;;;;;;5007723;28;20045;-68
2022/03/21 11:25:06;;;;;;;70.20;38.97;;;15.30;82.10;;;;;;5007340;28;19925;-68
2022/03/21 11:28:05;;;;;;;60.72;39.22;;;15.20;83.60;;;;;;5007152;28;20089;-69
2022/03/21 11:31:05;;;;;;;62.53;37.67;;;15.20;83.30;;;;;;5000251;28;20169;-68
2022/03/21 11:33:49;;;;;;;68.38;38.17;;;15.20;81.80;;;;;;4991125;28;20053;-68
2022/03/21 11:36:15;;;;;;;64.95;36.08;;;15.20;84.00;;;;;;5007532;28;20076;-68
2022/03/21 11:38:46;;;;;;;59.88;36.35;;;15.10;82.10;;;;;;5007287;28;20034;-68
2022/03/21 11:41:15;;;;;;;65.03;40.60;;;15.10;83.40;;;;;;5005994;28;20050;-69
2022/03/21 11:43:43;;;;;;;67.28;38.67;;;15.20;82.20;;;;;;5003307;28;20057;-67
2022/03/21 11:46:23;;;;;;;;;;;15.30;82.00;;;;;;5003913;28;20068;-68
2022/03/21 11:48:48;;;;;;;76.35;39.05;;;15.30;81.00;;;;;;5008682;28;19929;-68
2022/03/21 11:51:14;;;;;;;65.20;38.92;;;15.20;81.70;;;;;;5006154;28;20057;-67
2022/03/21 11:53:54;;;;;;;81.47;40.25;;;15.40;81.20;;;;;;4991552;28;20133;-67
2022/03/21 11:56:43;;;;;;;72.15;40.28;;;15.60;80.70;;;;;;5005333;28;20502;-68
2022/03/21 11:59:32;;;;;;;63.55;38.67;;;15.70;76.70;;;;;;4998671;28;20050;-68
2022/03/21 12:02:01;;;;;;;72.47;42.17;;;15.80;79.80;;;;;;5008185;28;20683;-68
2022/03/21 12:04:27;;;;;;;75.63;40.35;;;15.80;78.10;;;;;;4997472;28;20099;-68
2022/03/21 12:07:11;;;;;;;78.07;40.50;;;15.80;77.30;;;;;;4997040;28;20074;-67
2022/03/21 12:09:45;;;;;;;67.80;38.63;;;15.80;75.70;;;;;;5003846;28;20871;-68
2022/03/21 12:12:12;;;;;;;66.72;40.10;;;15.60;76.50;;;;;;5003430;28;20159;-68
2022/03/21 12:14:44;;;;;;;75.22;43.22;;;15.80;79.50;;;;;;5006106;28;20483;-68
2022/03/21 12:17:13;;;;;;;66.45;41.75;;;15.90;79.60;;;;;;5006223;28;20852;-68
2022/03/21 12:19:44;;;;;;;70.13;41.22;;;15.90;78.20;;;;;;5001436;28;20042;-68
2022/03/21 12:22:28;;;;;;;72.60;42.15;;;15.80;75.40;;;;;;5006937;28;20057;-68
2022/03/21 12:25:17;;;;;;;79.70;41.17;;;15.90;76.20;;;;;;5002855;28;20065;-67
2022/03/21 12:28:01;;;;;;;69.82;40.83;;;15.80;76.40;;;;;;5006248;28;20046;-67
2022/03/21 12:30:31;;;;;;;59.15;39.63;;;15.70;76.50;;;;;;5004069;28;20052;-68
2022/03/21 12:33:00;;;;;;;78.85;41.30;;;15.80;77.50;;;;;;5009706;28;20071;-68
2022/03/21 12:35:34;;;;;;;61.15;37.58;;;15.90;75.90;;;;;;5014122;28;20531;-68
2022/03/21 12:38:05;;;;;;;60.50;34.55;;;16.10;73.30;;;;;;5017973;28;20472;-68
2022/03/21 12:40:32;;;;;;;58.63;34.47;;;16.30;76.80;;;;;;5010430;28;20428;-68
2022/03/21 12:43:00;;;;;;;59.80;35.45;;;16.50;74.20;;;;;;5008979;28;20104;-68
2022/03/21 12:45:29;;;;;;;75.75;40.00;;;16.60;72.80;;;;;;5011335;28;20069;-69
2022/03/21 12:48:09;;;;;;;66.43;35.08;;;16.80;71.20;;;;;;5005496;28;20554;-68
2022/03/21 12:50:36;;;;;;;65.40;36.08;;;16.80;69.10;;;;;;5009162;28;20541;-68
2022/03/21 12:53:07;;;;;;;71.88;42.72;;;16.90;69.30;;;;;;5007617;28;20038;-68
2022/03/21 12:55:33;;;;;;;79.75;42.00;;;16.80;70.90;;;;;;5009759;28;20526;-68
2022/03/21 12:58:06;;;;;;;64.88;40.55;;;16.80;72.40;;;;;;5009859;28;20121;-68
2022/03/21 13:00:34;;;;;;;70.07;43.10;;;16.90;72.80;;;;;;5010095;28;20171;-68
2022/03/21 13:03:04;;;;;;;;;;;16.90;70.90;;;;;;5010851;28;20053;-69
2022/03/21 13:11:30;;;;;;;75.88;39.88;;;16.60;68.40;;;;;;5007230;28;20054;-68